Terminal Aerodrome Forecast
Issued by NWS

Home | Current Version | Previous Version | Graphics & Text | Print | Product List | Glossary On
Versions: 1 2 3 4 5 6 7 8 9 10 11 12 13 14 15 16 17 18 19 20 21 22 23 24 25 26 27 28 29 30 31 32 33 34 35 36 37
000
FTUS45 KGGW 271700
TAFOLF
TAF
KOLF 271730Z 2718/2818 VRB05KT 5SM -SHRA SCT050 BKN070
      TEMPO 2718/2721 3SM TSRA SCT040CB BKN060
     FM272200 VRB15G25KT 5SM -TSRA BKN050CB
     FM280300 VRB05KT P6SM VCSH BKN080
     FM281000 VRB06KT 6SM BR FEW005 SCT150=

USA.gov is the U.S. government's official web portal to all federal, state and local government web resources and services.